createdAt,value
2019-02-17T00:01:48.633Z,19.27
2019-02-17T00:04:18.274Z,18.87
2019-02-17T00:06:47.933Z,20.65
2019-02-17T00:09:17.301Z,19.40
2019-02-17T00:11:46.788Z,20.87
2019-02-17T00:14:16.161Z,20.60
2019-02-17T00:16:45.600Z,20.83
2019-02-17T00:19:14.967Z,21.17
2019-02-17T00:21:44.312Z,19.67
2019-02-17T00:24:13.899Z,21.48
2019-02-17T00:26:43.247Z,20.60
2019-02-17T00:29:12.913Z,19.90
2019-02-17T00:31:42.517Z,20.20
2019-02-17T00:34:13.750Z,22.03
2019-02-17T00:36:43.214Z,21.43
2019-02-17T00:39:12.861Z,20.05
2019-02-17T00:41:42.219Z,22.07
2019-02-17T00:44:11.882Z,19.87
2019-02-17T00:46:41.696Z,20.60
2019-02-17T00:49:11.634Z,20.47
2019-02-17T00:51:41.238Z,21.30
2019-02-17T00:54:10.968Z,20.57
2019-02-17T00:56:40.314Z,19.97
2019-02-17T00:59:10.664Z,17.48
2019-02-17T01:01:40.283Z,17.00
2019-02-17T01:04:09.951Z,15.30
2019-02-17T01:06:39.606Z,15.68
2019-02-17T01:09:09.277Z,16.35
2019-02-17T01:11:38.921Z,16.57
2019-02-17T01:14:08.295Z,17.30
2019-02-17T01:16:37.946Z,18.53
2019-02-17T01:19:07.309Z,16.07
2019-02-17T01:21:37.210Z,17.42
2019-02-17T01:24:07.012Z,18.65
2019-02-17T01:26:36.376Z,16.20
2019-02-17T01:29:06.032Z,15.70
2019-02-17T01:31:35.399Z,16.60
2019-02-17T01:34:08.234Z,16.02
2019-02-17T01:36:37.944Z,16.70
2019-02-17T01:39:07.880Z,18.27
2019-02-17T01:41:37.478Z,18.73
2019-02-17T01:44:07.333Z,18.30
2019-02-17T01:46:38.496Z,17.97
2019-02-17T01:49:08.242Z,18.07
2019-02-17T01:51:37.812Z,17.57
2019-02-17T01:54:07.188Z,20.17
2019-02-17T01:56:36.838Z,20.35
2019-02-17T01:59:06.211Z,21.50
2019-02-17T02:01:36.936Z,22.27
2019-02-17T02:04:06.310Z,20.23
2019-02-17T02:06:35.835Z,18.80
2019-02-17T02:09:08.371Z,21.25
2019-02-17T02:11:37.962Z,21.17
2019-02-17T02:14:07.329Z,20.12
2019-02-17T02:16:37.036Z,23.20
2019-02-17T02:19:07.412Z,22.23
2019-02-17T02:21:36.867Z,20.13
2019-02-17T02:24:06.541Z,21.13
2019-02-17T02:26:36.059Z,20.47
2019-02-17T02:29:05.395Z,21.95
2019-02-17T02:31:37.994Z,23.30
2019-02-17T02:34:07.673Z,21.87
2019-02-17T02:36:37.334Z,21.62
2019-02-17T02:39:08.830Z,22.00
2019-02-17T02:41:38.296Z,20.77
2019-02-17T02:44:07.940Z,19.52
2019-02-17T02:46:37.395Z,19.60
2019-02-17T02:49:07.443Z,21.12
2019-02-17T02:51:37.140Z,19.30
2019-02-17T02:54:06.784Z,19.90
2019-02-17T02:56:36.199Z,19.03
2019-02-17T02:59:05.532Z,20.40
2019-02-17T03:01:34.992Z,20.87
2019-02-17T03:04:04.348Z,21.63
2019-02-17T03:06:40.826Z,22.23
2019-02-17T03:09:11.833Z,21.73
2019-02-17T03:11:41.250Z,22.17
2019-02-17T03:14:10.667Z,20.97
2019-02-17T03:16:40.130Z,22.50
2019-02-17T03:19:09.479Z,24.10
2019-02-17T03:21:39.073Z,22.50
2019-02-17T03:24:08.718Z,23.63
2019-02-17T03:26:38.250Z,23.13
2019-02-17T03:29:08.660Z,23.40
2019-02-17T03:31:38.189Z,21.63
2019-02-17T03:34:08.123Z,21.52
2019-02-17T03:36:44.955Z,24.50
2019-02-17T03:39:14.416Z,20.87
2019-02-17T03:41:44.098Z,20.80
2019-02-17T03:44:13.468Z,19.70
2019-02-17T03:46:42.826Z,19.87
2019-02-17T03:49:12.637Z,21.60
2019-02-17T03:51:42.339Z,19.67
2019-02-17T03:54:11.701Z,19.67
2019-02-17T03:56:42.210Z,20.60
2019-02-17T03:59:11.572Z,22.07
2019-02-17T04:01:41.224Z,23.02
2019-02-17T04:04:10.778Z,22.73
2019-02-17T04:06:40.680Z,23.97
2019-02-17T04:09:10.358Z,24.85
2019-02-17T04:11:39.952Z,23.17
2019-02-17T04:14:09.520Z,22.43
2019-02-17T04:16:39.168Z,23.95
2019-02-17T04:19:08.545Z,24.07
2019-02-17T04:21:38.456Z,24.65
2019-02-17T04:24:08.183Z,25.15
2019-02-17T04:26:37.517Z,24.97
2019-02-17T04:29:10.156Z,25.10
2019-02-17T04:31:38.477Z,24.13
2019-02-17T04:34:08.130Z,25.15
2019-02-17T04:36:37.478Z,23.40
2019-02-17T04:39:07.140Z,23.40
2019-02-17T04:41:36.476Z,24.07
2019-02-17T04:44:06.158Z,23.05
2019-02-17T04:46:35.525Z,22.63
2019-02-17T04:49:05.726Z,22.32
2019-02-17T04:51:35.417Z,23.00
2019-02-17T04:54:06.462Z,23.23
2019-02-17T04:56:35.815Z,23.80
2019-02-17T04:59:05.478Z,24.43
2019-02-17T05:01:37.090Z,24.30
2019-02-17T05:04:06.726Z,22.10
2019-02-17T05:06:36.413Z,22.83
2019-02-17T05:09:06.694Z,23.37
2019-02-17T05:11:36.286Z,22.93
2019-02-17T05:14:05.667Z,22.50
2019-02-17T05:16:35.336Z,22.10
2019-02-17T05:19:04.833Z,23.67
2019-02-17T05:21:34.426Z,24.30
2019-02-17T05:24:05.552Z,25.30
2019-02-17T05:26:34.920Z,22.60
2019-02-17T05:29:04.606Z,24.20
2019-02-17T05:31:33.959Z,22.80
2019-02-17T05:34:03.618Z,22.87
2019-02-17T05:36:32.989Z,23.03
2019-02-17T05:39:03.013Z,26.20
2019-02-17T05:41:32.508Z,23.10
2019-02-17T05:44:02.126Z,23.23
2019-02-17T05:46:31.472Z,24.40
2019-02-17T05:49:01.754Z,23.35
2019-02-17T05:51:31.659Z,22.80
2019-02-17T05:54:01.980Z,22.02
2019-02-17T05:56:32.430Z,21.40
2019-02-17T05:59:01.839Z,23.07
2019-02-17T06:01:31.776Z,22.30
2019-02-17T06:04:02.709Z,23.40
2019-02-17T06:06:32.076Z,23.63
2019-02-17T06:09:01.927Z,23.00
2019-02-17T06:11:32.468Z,23.03
2019-02-17T06:14:07.752Z,22.87
2019-02-17T06:16:37.493Z,23.87
2019-02-17T06:19:07.130Z,24.03
2019-02-17T06:21:36.675Z,24.40
2019-02-17T06:24:06.318Z,24.70
2019-02-17T06:26:35.672Z,25.13
2019-02-17T06:29:05.269Z,26.20
2019-02-17T06:31:34.993Z,24.93
2019-02-17T06:34:04.655Z,24.80
2019-02-17T06:36:34.606Z,23.67
2019-02-17T06:39:05.942Z,23.27
2019-02-17T06:41:36.553Z,23.40
2019-02-17T06:44:05.901Z,22.37
2019-02-17T06:46:37.177Z,23.57
2019-02-17T06:49:06.818Z,23.80
2019-02-17T06:51:36.176Z,23.33
2019-02-17T06:54:06.077Z,23.80
2019-02-17T06:56:47.139Z,24.93
2019-02-17T06:59:16.786Z,22.03
2019-02-17T07:01:46.145Z,21.37
2019-02-17T07:04:15.777Z,21.17
2019-02-17T07:06:46.788Z,20.70
2019-02-17T07:09:16.152Z,22.60
2019-02-17T07:11:45.682Z,20.33
2019-02-17T07:14:15.028Z,21.27
2019-02-17T07:16:44.666Z,22.22
2019-02-17T07:19:14.322Z,21.57
2019-02-17T07:21:43.794Z,23.63
2019-02-17T07:24:13.446Z,22.52
2019-02-17T07:26:42.807Z,22.23
2019-02-17T07:29:12.695Z,22.25
2019-02-17T07:31:42.106Z,22.73
2019-02-17T07:34:11.858Z,22.48
2019-02-17T07:36:41.463Z,21.80
2019-02-17T07:39:12.720Z,22.10
2019-02-17T07:41:42.089Z,21.00
2019-02-17T07:44:11.644Z,22.33
2019-02-17T07:46:41.034Z,23.43
2019-02-17T07:49:14.291Z,20.77
2019-02-17T07:51:43.800Z,20.27
2019-02-17T07:54:13.263Z,21.23
2019-02-17T07:56:42.781Z,19.97
2019-02-17T07:59:12.139Z,21.10
2019-02-17T08:01:45.235Z,20.00
2019-02-17T08:04:13.107Z,20.13
2019-02-17T08:06:42.841Z,20.17
2019-02-17T08:09:12.175Z,18.37
2019-02-17T08:11:41.776Z,18.07
2019-02-17T08:14:11.480Z,18.00
2019-02-17T08:16:40.846Z,17.60
2019-02-17T08:19:10.464Z,18.73
2019-02-17T08:21:40.289Z,18.87
2019-02-17T08:24:09.932Z,17.27
2019-02-17T08:26:39.900Z,20.02
2019-02-17T08:29:09.238Z,19.70
2019-02-17T08:31:38.728Z,20.10
2019-02-17T08:34:08.072Z,19.48
2019-02-17T08:36:37.429Z,19.53
2019-02-17T08:39:07.054Z,19.90
2019-02-17T08:41:36.773Z,19.85
2019-02-17T08:44:06.119Z,19.90
2019-02-17T08:46:36.057Z,19.47
2019-02-17T08:49:06.241Z,18.70
2019-02-17T08:51:36.194Z,20.37
2019-02-17T08:54:05.830Z,19.20
2019-02-17T08:56:35.185Z,19.90
2019-02-17T08:59:04.835Z,18.33
2019-02-17T09:01:34.467Z,20.30
2019-02-17T09:04:04.088Z,19.60
2019-02-17T09:06:34.982Z,21.67
2019-02-17T09:09:05.534Z,19.63
2019-02-17T09:11:35.028Z,19.60
2019-02-17T09:14:04.377Z,19.50
2019-02-17T09:16:34.302Z,19.57
2019-02-17T09:19:04.191Z,20.80
2019-02-17T09:21:35.029Z,21.00
2019-02-17T09:24:04.375Z,23.57
2019-02-17T09:26:33.907Z,20.67
2019-02-17T09:29:03.288Z,21.40
2019-02-17T09:31:32.918Z,21.73
2019-02-17T09:34:02.268Z,21.37
2019-02-17T09:36:31.938Z,20.97
2019-02-17T09:39:02.394Z,20.92
2019-02-17T09:41:33.389Z,19.80
2019-02-17T09:44:03.027Z,21.17
2019-02-17T09:46:32.399Z,20.40
2019-02-17T09:49:02.327Z,21.23
2019-02-17T09:51:31.993Z,20.97
2019-02-17T09:54:02.422Z,21.23
2019-02-17T09:56:32.079Z,20.40
2019-02-17T09:59:02.413Z,21.40
2019-02-17T10:01:31.924Z,21.37
2019-02-17T10:04:02.395Z,21.40
2019-02-17T10:06:32.054Z,21.60
2019-02-17T10:09:02.587Z,20.60
2019-02-17T10:11:33.036Z,19.90
2019-02-17T10:14:02.454Z,20.73
2019-02-17T10:16:32.043Z,20.80
2019-02-17T10:19:02.527Z,19.80
2019-02-17T10:21:32.219Z,21.77
2019-02-17T10:24:02.728Z,21.02
2019-02-17T10:26:32.093Z,21.37
2019-02-17T10:29:02.392Z,20.32
2019-02-17T10:31:32.008Z,21.67
2019-02-17T10:34:02.391Z,21.77
2019-02-17T10:36:32.005Z,21.20
2019-02-17T10:39:02.816Z,20.35
2019-02-17T10:41:33.523Z,21.27
2019-02-17T10:44:03.197Z,19.80
2019-02-17T10:46:32.548Z,19.80
2019-02-17T10:49:02.469Z,21.67
2019-02-17T10:51:32.124Z,20.60
2019-02-17T10:54:02.525Z,20.75
2019-02-17T10:56:32.185Z,21.20
2019-02-17T10:59:02.444Z,20.57
2019-02-17T11:01:32.062Z,19.43
2019-02-17T11:04:04.771Z,20.82
2019-02-17T11:06:34.516Z,20.37
2019-02-17T11:09:06.580Z,20.60
2019-02-17T11:11:36.197Z,21.10
2019-02-17T11:14:05.563Z,19.83
2019-02-17T11:16:35.129Z,19.90
2019-02-17T11:19:04.472Z,20.00
2019-02-17T11:21:33.843Z,19.37
2019-02-17T11:24:03.608Z,19.53
2019-02-17T11:26:34.588Z,20.20
2019-02-17T11:29:04.277Z,18.70
2019-02-17T11:31:33.631Z,18.63
2019-02-17T11:34:03.303Z,19.62
2019-02-17T11:36:32.691Z,19.00
2019-02-17T11:39:02.577Z,18.17
2019-02-17T11:41:32.560Z,19.07
2019-02-17T11:44:02.556Z,19.37
2019-02-17T11:46:32.177Z,19.70
2019-02-17T11:49:02.825Z,19.55
2019-02-17T11:51:32.321Z,18.40
2019-02-17T11:54:02.676Z,19.37
2019-02-17T11:56:33.032Z,18.77
2019-02-17T11:59:02.655Z,17.80
2019-02-17T12:01:32.229Z,18.00
2019-02-17T12:04:02.665Z,18.42
2019-02-17T12:06:32.331Z,18.10
2019-02-17T12:09:02.996Z,17.82
2019-02-17T12:11:32.373Z,18.53
2019-02-17T12:14:03.648Z,17.23
2019-02-17T12:16:37.020Z,17.80
2019-02-17T12:19:04.841Z,16.77
2019-02-17T12:21:51.268Z,18.60
2019-02-17T12:24:22.373Z,17.77
2019-02-17T12:26:59.321Z,19.63
2019-02-17T12:29:33.679Z,19.03
2019-02-17T12:32:03.058Z,19.20
2019-02-17T12:34:33.326Z,17.23
2019-02-17T12:37:02.717Z,17.87
2019-02-17T12:39:32.414Z,17.48
2019-02-17T12:42:02.802Z,19.27
2019-02-17T12:44:32.650Z,19.23
2019-02-17T12:47:02.718Z,17.67
2019-02-17T12:49:32.412Z,18.37
2019-02-17T12:52:03.451Z,17.92
2019-02-17T12:54:32.820Z,17.87
2019-02-17T12:57:02.737Z,17.47
2019-02-17T12:59:32.608Z,18.30
2019-02-17T13:02:02.810Z,17.50
2019-02-17T13:04:32.446Z,16.97
2019-02-17T13:07:02.711Z,17.57
2019-02-17T13:09:32.073Z,17.10
2019-02-17T13:12:02.767Z,16.35
2019-02-17T13:14:32.430Z,15.90
2019-02-17T13:17:02.947Z,16.93
2019-02-17T13:19:32.632Z,16.50
2019-02-17T13:22:02.730Z,16.52
2019-02-17T13:24:32.341Z,16.13
2019-02-17T13:27:02.856Z,17.30
2019-02-17T13:29:32.432Z,16.80
2019-02-17T13:32:02.986Z,16.90
2019-02-17T13:34:32.471Z,16.77
2019-02-17T13:37:02.968Z,16.17
2019-02-17T13:39:32.672Z,15.73
2019-02-17T13:42:02.949Z,16.50
2019-02-17T13:44:32.470Z,16.13
2019-02-17T13:47:04.271Z,16.37
2019-02-17T13:49:34.600Z,15.70
2019-02-17T13:52:04.247Z,15.67
2019-02-17T13:54:35.786Z,17.27
2019-02-17T13:57:05.378Z,15.70
2019-02-17T13:59:34.744Z,15.90
2019-02-17T14:02:04.087Z,16.70
2019-02-17T14:04:33.764Z,15.80
2019-02-17T14:07:03.157Z,15.60
2019-02-17T14:09:32.715Z,16.50
2019-02-17T14:12:02.998Z,17.17
2019-02-17T14:14:33.588Z,15.27
2019-02-17T14:17:03.015Z,16.80
2019-02-17T14:19:34.544Z,16.10
2019-02-17T14:22:04.162Z,16.83
2019-02-17T14:24:33.738Z,16.70
2019-02-17T14:27:03.979Z,17.13
2019-02-17T14:29:33.748Z,16.40
2019-02-17T14:32:03.089Z,15.90
2019-02-17T14:34:33.204Z,15.37
2019-02-17T14:37:02.966Z,16.47
2019-02-17T14:39:32.333Z,15.83
2019-02-17T14:42:03.304Z,15.88
2019-02-17T14:44:32.652Z,15.90
2019-02-17T14:47:02.957Z,16.07
2019-02-17T14:49:32.601Z,16.40
2019-02-17T14:52:03.344Z,17.50
2019-02-17T14:54:32.738Z,17.90
2019-02-17T14:57:03.080Z,16.90
2019-02-17T14:59:32.701Z,16.60
2019-02-17T15:02:03.022Z,17.95
2019-02-17T15:04:32.659Z,16.73
2019-02-17T15:07:02.993Z,16.25
2019-02-17T15:09:32.337Z,15.53
2019-02-17T15:12:03.128Z,16.37
2019-02-17T15:14:32.705Z,16.73
2019-02-17T15:17:03.026Z,15.95
2019-02-17T15:19:32.652Z,17.07
2019-02-17T15:22:03.030Z,15.20
2019-02-17T15:24:32.375Z,16.30
2019-02-17T15:27:03.112Z,17.37
2019-02-17T15:29:32.674Z,16.10
2019-02-17T15:32:02.770Z,17.30
2019-02-17T15:34:32.353Z,17.60
2019-02-17T15:37:03.054Z,17.15
2019-02-17T15:39:32.398Z,17.40
2019-02-17T15:42:03.185Z,17.32
2019-02-17T15:44:32.839Z,16.60
2019-02-17T15:47:03.129Z,17.20
2019-02-17T15:49:32.739Z,16.70
2019-02-17T15:52:03.319Z,16.73
2019-02-17T15:54:32.891Z,16.97
2019-02-17T15:57:03.211Z,16.75
2019-02-17T15:59:33.035Z,16.43
2019-02-17T16:02:03.193Z,15.95
2019-02-17T16:04:33.086Z,15.77
2019-02-17T16:07:03.207Z,16.35
2019-02-17T16:09:32.817Z,16.43
2019-02-17T16:12:03.191Z,16.23
2019-02-17T16:14:32.864Z,33.50
2019-02-17T16:17:03.131Z,59.53
2019-02-17T16:19:33.123Z,26.13
2019-02-17T16:22:03.220Z,21.05
2019-02-17T16:24:32.874Z,21.60
2019-02-17T16:27:03.286Z,17.07
2019-02-17T16:29:32.851Z,17.13
2019-02-17T16:32:03.426Z,17.40
2019-02-17T16:34:38.559Z,17.97
2019-02-17T16:37:04.327Z,16.10
2019-02-17T16:39:33.995Z,16.30
2019-02-17T16:42:03.423Z,16.30
2019-02-17T16:44:33.589Z,16.83
2019-02-17T16:47:03.329Z,19.30
2019-02-17T16:49:33.145Z,17.13
2019-02-17T16:52:03.432Z,21.95
2019-02-17T16:54:33.095Z,18.47
2019-02-17T16:57:03.314Z,19.02
2019-02-17T16:59:32.937Z,16.87
2019-02-17T17:02:03.371Z,17.73
2019-02-17T17:04:33.073Z,18.40
2019-02-17T17:07:03.766Z,17.30
2019-02-17T17:09:33.135Z,19.73
2019-02-17T17:12:03.758Z,16.77
2019-02-17T17:14:33.122Z,17.00
2019-02-17T17:17:03.324Z,16.48
2019-02-17T17:19:34.510Z,18.25
2019-02-17T17:22:04.173Z,17.80
2019-02-17T17:24:33.531Z,17.10
2019-02-17T17:27:03.640Z,17.83
2019-02-17T17:29:33.239Z,20.47
2019-02-17T17:32:03.478Z,18.52
2019-02-17T17:34:34.285Z,20.53
2019-02-17T17:37:04.015Z,18.25
2019-02-17T17:39:34.690Z,19.20
2019-02-17T17:42:04.352Z,19.13
2019-02-17T17:44:34.306Z,17.73
2019-02-17T17:47:03.983Z,18.20
2019-02-17T17:49:33.331Z,18.23
2019-02-17T17:52:03.516Z,19.00
2019-02-17T17:54:33.064Z,18.70
2019-02-17T17:57:03.406Z,19.23
2019-02-17T17:59:33.052Z,19.00
2019-02-17T18:02:03.679Z,18.85
2019-02-17T18:04:33.202Z,19.20
2019-02-17T18:07:03.568Z,19.15
2019-02-17T18:09:33.190Z,18.00
2019-02-17T18:12:03.691Z,23.27
2019-02-17T18:14:33.090Z,22.27
2019-02-17T18:17:03.474Z,19.42
2019-02-17T18:19:35.045Z,18.80
2019-02-17T18:22:04.509Z,19.97
2019-02-17T18:24:34.242Z,20.20
2019-02-17T18:27:03.669Z,18.43
2019-02-17T18:29:34.563Z,17.43
2019-02-17T18:32:05.229Z,18.17
2019-02-17T18:34:34.563Z,18.70
2019-02-17T18:37:06.072Z,18.20
2019-02-17T18:39:35.451Z,19.57
2019-02-17T18:42:05.128Z,20.63
2019-02-17T18:44:34.474Z,18.90
2019-02-17T18:47:03.835Z,18.77
2019-02-17T18:49:33.331Z,16.97
2019-02-17T18:52:04.479Z,17.37
2019-02-17T18:54:35.331Z,17.60
2019-02-17T18:57:08.244Z,17.60
2019-02-17T18:59:36.044Z,17.35
2019-02-17T19:02:05.507Z,17.30
2019-02-17T19:04:34.850Z,17.47
2019-02-17T19:07:04.567Z,17.10
2019-02-17T19:09:34.186Z,17.00
2019-02-17T19:12:03.659Z,17.67
2019-02-17T19:14:33.305Z,17.70
2019-02-17T19:17:04.596Z,17.12
2019-02-17T19:19:35.574Z,18.98
2019-02-17T19:22:05.236Z,18.95
2019-02-17T19:24:34.826Z,25.87
2019-02-17T19:27:04.727Z,23.40
2019-02-17T19:29:34.234Z,25.17
2019-02-17T19:32:03.731Z,26.03
2019-02-17T19:34:34.406Z,18.77
2019-02-17T19:37:03.832Z,17.57
2019-02-17T19:39:34.127Z,17.53
2019-02-17T19:42:04.519Z,15.80
2019-02-17T19:44:34.186Z,18.48
2019-02-17T19:47:03.715Z,17.87
2019-02-17T19:49:33.814Z,17.85
2019-02-17T19:52:03.817Z,17.97
2019-02-17T19:54:33.462Z,18.43
2019-02-17T19:57:03.799Z,17.00
2019-02-17T19:59:33.471Z,18.40
2019-02-17T20:02:03.678Z,18.60
2019-02-17T20:04:34.676Z,18.67
2019-02-17T20:07:04.094Z,19.13
2019-02-17T20:09:33.706Z,19.07
2019-02-17T20:12:03.809Z,18.07
2019-02-17T20:14:33.401Z,18.27
2019-02-17T20:17:03.788Z,16.95
2019-02-17T20:19:35.085Z,18.07
2019-02-17T20:22:04.772Z,18.63
2019-02-17T20:24:34.439Z,17.87
2019-02-17T20:27:03.853Z,19.07
2019-02-17T20:29:33.450Z,17.90
2019-02-17T20:32:03.753Z,17.30
2019-02-17T20:34:33.367Z,17.97
2019-02-17T20:37:03.877Z,18.55
2019-02-17T20:39:33.449Z,18.47
2019-02-17T20:42:03.899Z,19.92
2019-02-17T20:44:33.445Z,18.47
2019-02-17T20:47:04.046Z,17.23
2019-02-17T20:49:33.610Z,17.17
2019-02-17T20:52:04.158Z,18.85
2019-02-17T20:54:33.586Z,18.60
2019-02-17T20:57:04.535Z,18.10
2019-02-17T20:59:33.924Z,17.70
2019-02-17T21:02:03.986Z,18.42
2019-02-17T21:04:33.635Z,19.60
2019-02-17T21:07:04.172Z,19.17
2019-02-17T21:09:33.595Z,17.80
2019-02-17T21:12:03.838Z,18.40
2019-02-17T21:14:33.187Z,16.83
2019-02-17T21:17:04.144Z,19.42
2019-02-17T21:19:33.822Z,19.60
2019-02-17T21:22:03.512Z,17.20
2019-02-17T21:24:33.088Z,18.60
2019-02-17T21:27:03.911Z,16.85
2019-02-17T21:29:34.556Z,17.40
2019-02-17T21:32:03.954Z,17.70
2019-02-17T21:34:34.530Z,17.33
2019-02-17T21:37:04.184Z,15.43
2019-02-17T21:39:33.707Z,16.57
2019-02-17T21:42:04.306Z,16.85
2019-02-17T21:44:35.745Z,17.10
2019-02-17T21:47:05.532Z,17.93
2019-02-17T21:49:34.950Z,16.33
2019-02-17T21:52:05.102Z,17.90
2019-02-17T21:54:34.856Z,16.53
2019-02-17T21:57:04.523Z,17.02
2019-02-17T21:59:34.099Z,19.67
2019-02-17T22:02:04.122Z,19.42
2019-02-17T22:04:35.812Z,21.45
2019-02-17T22:07:06.072Z,25.43
2019-02-17T22:09:35.913Z,23.77
2019-02-17T22:12:05.569Z,22.45
2019-02-17T22:14:34.904Z,21.70
2019-02-17T22:17:04.265Z,20.60
2019-02-17T22:19:33.833Z,17.90
2019-02-17T22:22:04.459Z,17.00
2019-02-17T22:24:33.801Z,16.60
2019-02-17T22:27:04.802Z,17.80
2019-02-17T22:29:35.120Z,17.20
2019-02-17T22:32:04.780Z,17.60
2019-02-17T22:34:34.379Z,17.07
2019-02-17T22:37:04.186Z,15.73
2019-02-17T22:39:33.791Z,17.00
2019-02-17T22:42:04.184Z,16.32
2019-02-17T22:44:33.823Z,16.73
2019-02-17T22:47:04.066Z,17.25
2019-02-17T22:49:34.103Z,15.13
2019-02-17T22:52:04.187Z,16.37
2019-02-17T22:54:34.198Z,15.07
2019-02-17T22:57:05.402Z,16.77
2019-02-17T22:59:35.067Z,16.15
2019-02-17T23:02:05.200Z,16.80
2019-02-17T23:04:34.547Z,15.73
2019-02-17T23:07:04.519Z,15.70
2019-02-17T23:09:34.095Z,18.80
2019-02-17T23:12:04.698Z,15.35
2019-02-17T23:14:34.304Z,14.93
2019-02-17T23:17:04.517Z,15.15
2019-02-17T23:19:34.394Z,15.72
2019-02-17T23:22:04.549Z,15.15
2019-02-17T23:24:34.323Z,15.43
2019-02-17T23:27:04.488Z,14.03
2019-02-17T23:29:34.086Z,15.47
2019-02-17T23:32:04.945Z,15.30
2019-02-17T23:34:34.284Z,14.50
2019-02-17T23:37:04.591Z,15.65
2019-02-17T23:39:34.270Z,14.93
2019-02-17T23:42:04.541Z,14.63
2019-02-17T23:44:34.152Z,14.90
2019-02-17T23:47:04.521Z,14.15
2019-02-17T23:49:34.161Z,14.30
2019-02-17T23:52:04.621Z,14.45
2019-02-17T23:54:34.241Z,14.90
2019-02-17T23:57:04.639Z,12.33
2019-02-17T23:59:34.157Z,13.47
